createdAt,value
2023-02-01T00:02:17.819Z,9.32
2023-02-01T00:04:44.653Z,6.60
2023-02-01T00:07:14.210Z,12.23
2023-02-01T00:09:41.191Z,7.15
2023-02-01T00:12:08.104Z,12.45
2023-02-01T00:14:39.575Z,11.00
2023-02-01T00:19:35.546Z,11.70
2023-02-01T00:22:02.359Z,13.70
2023-02-01T00:24:29.328Z,6.82
2023-02-01T00:26:56.924Z,12.07
2023-02-01T00:29:24.051Z,15.95
2023-02-01T00:31:52.679Z,15.45
2023-02-01T00:34:20.565Z,14.98
2023-02-01T00:36:48.113Z,13.93
2023-02-01T00:39:15.737Z,7.57
2023-02-01T00:41:42.687Z,11.90
2023-02-01T00:44:09.792Z,11.23
2023-02-01T00:46:37.268Z,10.43
2023-02-01T00:49:04.371Z,10.68
2023-02-01T00:51:31.392Z,10.30
2023-02-01T00:53:58.751Z,10.00
2023-02-01T00:56:25.903Z,13.73
2023-02-01T00:58:52.789Z,8.73
2023-02-01T01:01:26.978Z,10.65
2023-02-01T01:03:59.601Z,10.88
2023-02-01T01:06:29.318Z,9.73
2023-02-01T01:08:57.860Z,6.57
2023-02-01T01:11:28.243Z,5.70
2023-02-01T01:13:56.626Z,10.85
2023-02-01T01:16:24.992Z,15.13
2023-02-01T01:18:52.670Z,11.57
2023-02-01T01:21:19.908Z,13.00
2023-02-01T01:23:48.571Z,19.80
2023-02-01T01:26:18.778Z,13.55
2023-02-01T01:28:45.838Z,19.88
2023-02-01T01:31:14.254Z,12.68
2023-02-01T01:33:41.253Z,11.05
2023-02-01T01:36:12.301Z,11.73
2023-02-01T01:38:40.019Z,7.80
2023-02-01T01:41:07.606Z,15.05
2023-02-01T01:43:59.427Z,12.20
2023-02-01T01:46:31.907Z,8.65
2023-02-01T01:49:10.541Z,7.35
2023-02-01T01:51:42.687Z,10.18
2023-02-01T01:54:18.590Z,12.00
2023-02-01T01:56:52.547Z,18.90
2023-02-01T01:59:20.185Z,11.35
2023-02-01T02:01:47.815Z,13.50
2023-02-01T02:04:14.953Z,12.77
2023-02-01T02:06:54.184Z,10.68
2023-02-01T02:09:21.036Z,12.68
2023-02-01T02:11:47.981Z,20.55
2023-02-01T02:14:18.584Z,15.77
2023-02-01T02:16:48.445Z,9.80
2023-02-01T02:19:56.755Z,11.95
2023-02-01T02:22:46.825Z,10.95
2023-02-01T02:25:34.911Z,11.05
2023-02-01T02:28:29.759Z,10.73
2023-02-01T02:31:14.739Z,6.88
2023-02-01T02:34:05.883Z,7.97
2023-02-01T02:36:53.776Z,11.02
2023-02-01T02:39:23.708Z,10.32
2023-02-01T02:42:28.832Z,8.73
2023-02-01T02:45:29.020Z,6.13
2023-02-01T02:48:14.400Z,14.57
2023-02-01T02:51:06.814Z,15.20
2023-02-01T02:54:20.718Z,13.35
2023-02-01T02:57:08.289Z,10.25
2023-02-01T02:59:55.036Z,16.08
2023-02-01T03:02:41.420Z,19.17
2023-02-01T03:05:08.357Z,12.93
2023-02-01T03:07:52.255Z,15.35
2023-02-01T03:10:41.814Z,13.75
2023-02-01T03:13:15.485Z,9.85
2023-02-01T03:16:01.065Z,20.40
2023-02-01T03:18:37.082Z,14.38
2023-02-01T03:21:09.504Z,13.90
2023-02-01T03:23:40.729Z,13.75
2023-02-01T03:26:12.996Z,15.18
2023-02-01T03:28:47.180Z,9.68
2023-02-01T03:31:15.185Z,14.90
2023-02-01T03:33:42.566Z,23.38
2023-02-01T03:36:35.349Z,9.25
2023-02-01T03:39:17.834Z,15.57
2023-02-01T03:41:52.631Z,16.02
2023-02-01T03:44:31.998Z,21.73
2023-02-01T03:47:26.429Z,14.15
2023-02-01T03:50:00.354Z,13.45
2023-02-01T03:52:42.282Z,23.25
2023-02-01T03:55:11.030Z,21.08
2023-02-01T03:57:44.477Z,23.45
2023-02-01T04:00:18.729Z,21.80
2023-02-01T04:02:45.723Z,19.73
2023-02-01T04:05:12.810Z,25.10
2023-02-01T04:07:39.817Z,17.88
2023-02-01T04:10:07.278Z,18.45
2023-02-01T04:12:34.118Z,27.80
2023-02-01T04:15:00.961Z,24.92
2023-02-01T04:17:27.869Z,23.17
2023-02-01T04:19:55.595Z,22.85
2023-02-01T04:22:22.418Z,17.45
2023-02-01T04:24:49.385Z,19.27
2023-02-01T04:27:16.665Z,17.40
2023-02-01T04:29:43.565Z,23.20
2023-02-01T04:32:10.361Z,26.98
2023-02-01T04:34:37.216Z,18.63
2023-02-01T04:37:04.389Z,22.05
2023-02-01T04:39:31.425Z,22.63
2023-02-01T04:41:58.250Z,25.95
2023-02-01T04:44:25.342Z,21.98
2023-02-01T04:46:52.125Z,9.13
2023-02-01T04:49:19.121Z,15.80
2023-02-01T04:51:45.936Z,11.38
2023-02-01T04:54:12.863Z,13.88
2023-02-01T04:56:39.656Z,20.52
2023-02-01T04:59:06.936Z,18.33
2023-02-01T05:01:34.263Z,16.67
2023-02-01T05:04:01.245Z,19.27
2023-02-01T05:06:27.947Z,18.63
2023-02-01T05:08:54.842Z,15.50
2023-02-01T05:11:40.381Z,20.65
2023-02-01T05:14:07.312Z,15.38
2023-02-01T05:16:34.326Z,14.35
2023-02-01T05:19:01.086Z,16.95
2023-02-01T05:21:28.128Z,14.82
2023-02-01T05:24:13.494Z,22.08
2023-02-01T05:26:41.694Z,24.88
2023-02-01T05:29:09.735Z,13.30
2023-02-01T05:31:37.223Z,21.55
2023-02-01T05:34:04.365Z,20.42
2023-02-01T05:36:31.276Z,19.27
2023-02-01T05:38:58.214Z,22.73
2023-02-01T05:41:25.547Z,18.85
2023-02-01T05:43:52.227Z,20.13
2023-02-01T05:46:19.187Z,18.95
2023-02-01T05:48:45.927Z,23.42
2023-02-01T05:51:13.493Z,19.00
2023-02-01T05:53:40.217Z,21.98
2023-02-01T05:56:07.272Z,16.63
2023-02-01T05:58:34.130Z,21.35
2023-02-01T06:01:01.757Z,17.95
2023-02-01T06:03:29.026Z,20.35
2023-02-01T06:05:56.279Z,19.20
2023-02-01T06:08:26.472Z,18.50
2023-02-01T06:10:59.804Z,18.65
2023-02-01T06:13:26.611Z,23.23
2023-02-01T06:15:53.547Z,22.02
2023-02-01T06:18:20.549Z,17.65
2023-02-01T06:20:56.317Z,24.02
2023-02-01T06:23:24.737Z,13.77
2023-02-01T06:26:00.827Z,15.32
2023-02-01T06:28:28.835Z,19.55
2023-02-01T06:30:55.940Z,26.30
2023-02-01T06:33:22.684Z,19.40
2023-02-01T06:35:49.401Z,18.67
2023-02-01T06:38:16.374Z,19.88
2023-02-01T06:40:43.289Z,19.48
2023-02-01T06:43:10.193Z,24.90
2023-02-01T06:45:36.855Z,17.20
2023-02-01T06:48:03.738Z,16.98
2023-02-01T06:50:30.452Z,17.85
2023-02-01T06:52:57.312Z,16.13
2023-02-01T06:55:24.014Z,20.60
2023-02-01T06:57:55.031Z,18.15
2023-02-01T07:00:25.839Z,14.70
2023-02-01T07:02:52.728Z,11.77
2023-02-01T07:05:19.418Z,21.80
2023-02-01T07:07:46.196Z,14.43
2023-02-01T07:10:13.505Z,19.02
2023-02-01T07:12:40.368Z,10.82
2023-02-01T07:15:07.743Z,16.08
2023-02-01T07:17:34.451Z,26.05
2023-02-01T07:20:02.468Z,24.05
2023-02-01T07:22:30.246Z,16.77
2023-02-01T07:24:56.955Z,18.70
2023-02-01T07:27:25.927Z,19.08
2023-02-01T07:29:53.630Z,12.23
2023-02-01T07:32:20.378Z,18.35
2023-02-01T07:34:47.063Z,19.65
2023-02-01T07:37:13.895Z,10.40
2023-02-01T07:39:40.572Z,15.85
2023-02-01T07:42:07.832Z,18.30
2023-02-01T07:44:34.544Z,22.45
2023-02-01T07:47:01.238Z,10.20
2023-02-01T07:49:28.055Z,17.70
2023-02-01T07:51:54.791Z,16.98
2023-02-01T07:54:21.440Z,17.33
2023-02-01T07:56:48.107Z,12.68
2023-02-01T07:59:16.105Z,15.98
2023-02-01T08:01:43.296Z,21.00
2023-02-01T08:04:13.324Z,20.73
2023-02-01T08:06:41.074Z,21.75
2023-02-01T08:09:12.291Z,18.65
2023-02-01T08:11:39.102Z,15.73
2023-02-01T08:14:06.883Z,23.77
2023-02-01T08:16:36.177Z,15.75
2023-02-01T08:19:03.433Z,21.75
2023-02-01T08:21:39.216Z,17.58
2023-02-01T08:24:07.379Z,10.20
2023-02-01T08:26:34.191Z,9.15
2023-02-01T08:29:04.045Z,15.07
2023-02-01T08:31:31.853Z,12.52
2023-02-01T08:34:01.707Z,17.05
2023-02-01T08:36:30.541Z,18.48
2023-02-01T08:38:57.363Z,7.70
2023-02-01T08:41:26.743Z,10.95
2023-02-01T08:43:55.072Z,13.90
2023-02-01T08:46:22.577Z,14.25
2023-02-01T08:48:50.102Z,12.63
2023-02-01T08:51:19.015Z,13.50
2023-02-01T08:53:46.015Z,16.42
2023-02-01T08:56:14.391Z,17.10
2023-02-01T08:58:41.511Z,23.50
2023-02-01T09:01:10.560Z,15.80
2023-02-01T09:03:37.440Z,11.02
2023-02-01T09:06:06.613Z,14.02
2023-02-01T09:08:34.259Z,20.13
2023-02-01T09:11:06.593Z,18.70
2023-02-01T09:13:34.729Z,22.80
2023-02-01T09:16:01.703Z,22.58
2023-02-01T09:18:28.509Z,9.40
2023-02-01T09:20:55.277Z,17.30
2023-02-01T09:23:22.053Z,15.02
2023-02-01T09:25:51.316Z,20.70
2023-02-01T09:28:18.989Z,16.13
2023-02-01T09:30:45.769Z,16.45
2023-02-01T09:33:12.555Z,13.98
2023-02-01T09:35:39.338Z,23.33
2023-02-01T09:38:06.358Z,20.50
2023-02-01T09:40:35.589Z,19.90
2023-02-01T09:43:20.003Z,14.93
2023-02-01T09:46:15.638Z,18.65
2023-02-01T09:48:44.947Z,22.50
2023-02-01T09:51:22.709Z,21.33
2023-02-01T09:54:06.037Z,16.25
2023-02-01T09:56:45.486Z,16.48
2023-02-01T09:59:24.772Z,20.85
2023-02-01T10:01:51.660Z,14.35
2023-02-01T10:04:19.034Z,13.20
2023-02-01T10:07:04.363Z,20.60
2023-02-01T10:09:40.304Z,23.83
2023-02-01T10:12:39.387Z,12.95
2023-02-01T10:15:31.525Z,10.57
2023-02-01T10:18:23.790Z,16.77
2023-02-01T10:21:13.160Z,18.23
2023-02-01T10:24:17.655Z,16.75
2023-02-01T10:26:52.195Z,13.55
2023-02-01T10:29:27.236Z,20.13
2023-02-01T10:31:54.166Z,17.55
2023-02-01T10:34:27.134Z,21.88
2023-02-01T10:37:09.531Z,14.23
2023-02-01T10:39:37.963Z,11.90
2023-02-01T10:42:04.895Z,19.15
2023-02-01T10:44:35.927Z,12.38
2023-02-01T10:47:02.648Z,16.23
2023-02-01T10:49:38.351Z,17.75
2023-02-01T10:52:16.345Z,20.40
2023-02-01T10:54:43.599Z,20.95
2023-02-01T10:57:22.782Z,17.25
2023-02-01T10:59:49.478Z,25.75
2023-02-01T11:02:29.039Z,25.27
2023-02-01T11:05:10.336Z,20.67
2023-02-01T11:07:38.411Z,19.90
2023-02-01T11:10:05.902Z,22.63
2023-02-01T11:12:38.646Z,35.25
2023-02-01T11:15:19.554Z,13.45
2023-02-01T11:17:48.903Z,23.30
2023-02-01T11:20:21.709Z,24.52
2023-02-01T11:22:56.457Z,16.02
2023-02-01T11:25:24.749Z,24.58
2023-02-01T11:27:55.527Z,22.80
2023-02-01T11:30:34.291Z,25.17
2023-02-01T11:33:03.585Z,18.60
2023-02-01T11:35:32.402Z,19.42
2023-02-01T11:38:00.254Z,22.85
2023-02-01T11:40:36.905Z,21.02
2023-02-01T11:43:28.791Z,26.98
2023-02-01T11:46:01.275Z,19.33
2023-02-01T11:48:31.305Z,26.75
2023-02-01T11:51:00.827Z,24.02
2023-02-01T11:53:56.732Z,24.30
2023-02-01T11:56:43.744Z,21.08
2023-02-01T11:59:24.247Z,24.90
2023-02-01T12:01:59.023Z,31.95
2023-02-01T12:04:46.059Z,19.98
2023-02-01T12:07:38.203Z,29.45
2023-02-01T12:10:20.072Z,25.45
2023-02-01T12:13:18.328Z,27.88
2023-02-01T12:16:03.293Z,20.65
2023-02-01T12:19:17.233Z,31.33
2023-02-01T12:21:59.966Z,31.08
2023-02-01T12:24:41.033Z,23.05
2023-02-01T12:27:47.739Z,26.65
2023-02-01T12:30:17.481Z,14.20
2023-02-01T12:33:22.863Z,18.73
2023-02-01T12:36:13.399Z,22.63
2023-02-01T12:39:07.431Z,15.68
2023-02-01T12:41:34.050Z,18.27
2023-02-01T12:44:22.361Z,19.35
2023-02-01T12:47:30.720Z,20.98
2023-02-01T12:50:19.942Z,18.73
2023-02-01T12:52:52.519Z,28.42
2023-02-01T12:55:25.251Z,18.60
2023-02-01T12:58:18.931Z,20.60
2023-02-01T13:00:50.024Z,15.02
2023-02-01T13:03:30.346Z,29.10
2023-02-01T13:06:08.124Z,21.45
2023-02-01T13:08:58.545Z,17.40
2023-02-01T13:11:43.537Z,16.02
2023-02-01T13:14:33.257Z,25.42
2023-02-01T13:17:25.921Z,17.30
2023-02-01T13:20:06.167Z,19.92
2023-02-01T13:22:38.076Z,24.92
2023-02-01T13:25:36.159Z,23.67
2023-02-01T13:28:13.608Z,25.10
2023-02-01T13:31:10.855Z,18.40
2023-02-01T13:33:52.815Z,23.92
2023-02-01T13:36:21.870Z,19.17
2023-02-01T13:39:24.449Z,19.35
2023-02-01T13:42:02.561Z,19.83
2023-02-01T13:44:57.962Z,16.10
2023-02-01T13:47:34.895Z,20.48
2023-02-01T13:50:13.675Z,20.60
2023-02-01T13:52:44.524Z,23.38
2023-02-01T13:55:14.151Z,31.60
2023-02-01T13:57:44.868Z,26.40
2023-02-01T14:00:33.711Z,27.23
2023-02-01T14:03:02.006Z,28.17
2023-02-01T14:05:29.041Z,30.80
2023-02-01T14:08:08.530Z,25.80
2023-02-01T14:10:56.879Z,24.98
2023-02-01T14:13:40.877Z,27.02
2023-02-01T14:16:07.556Z,32.85
2023-02-01T14:18:43.009Z,34.55
2023-02-01T14:21:37.376Z,22.17
2023-02-01T14:24:25.142Z,26.02
2023-02-01T14:26:53.918Z,31.75
2023-02-01T14:29:27.535Z,22.45
2023-02-01T14:32:19.003Z,23.05
2023-02-01T14:34:48.723Z,27.63
2023-02-01T14:37:18.195Z,20.25
2023-02-01T14:39:47.679Z,22.48
2023-02-01T14:42:35.565Z,10.85
2023-02-01T14:45:24.349Z,13.00
2023-02-01T14:47:53.062Z,8.82
2023-02-01T14:50:34.762Z,13.98
2023-02-01T14:53:14.077Z,11.88
2023-02-01T14:56:04.019Z,9.90
2023-02-01T14:58:48.616Z,10.77
2023-02-01T15:01:24.019Z,8.10
2023-02-01T15:04:09.844Z,7.05
2023-02-01T15:06:48.539Z,8.70
2023-02-01T15:09:20.979Z,12.55
2023-02-01T15:12:12.057Z,5.05
2023-02-01T15:14:41.258Z,5.30
2023-02-01T15:17:24.322Z,12.02
2023-02-01T15:20:04.861Z,11.43
2023-02-01T15:22:35.721Z,11.00
2023-02-01T15:25:04.243Z,7.85
2023-02-01T15:27:32.736Z,7.00
2023-02-01T15:30:17.032Z,7.03
2023-02-01T15:32:43.731Z,4.50
2023-02-01T15:35:33.628Z,6.72
2023-02-01T15:38:19.872Z,7.25
2023-02-01T15:41:05.652Z,5.93
2023-02-01T15:43:56.470Z,8.93
2023-02-01T15:46:33.110Z,8.60
2023-02-01T15:49:00.201Z,4.60
2023-02-01T15:51:30.425Z,5.10
2023-02-01T15:54:00.756Z,8.88
2023-02-01T15:56:37.995Z,8.77
2023-02-01T15:59:13.229Z,8.48
2023-02-01T16:01:42.997Z,5.00
2023-02-01T16:04:24.804Z,10.00
2023-02-01T16:09:26.061Z,5.38
2023-02-01T16:11:57.263Z,8.02
2023-02-01T16:14:25.020Z,8.65
2023-02-01T16:16:53.631Z,7.03
2023-02-01T16:19:20.769Z,7.00
2023-02-01T16:21:48.074Z,8.13
2023-02-01T16:24:15.035Z,6.25
2023-02-01T16:26:42.014Z,5.22
2023-02-01T16:29:09.416Z,3.92
2023-02-01T16:31:39.879Z,6.88
2023-02-01T16:34:07.555Z,7.47
2023-02-01T16:36:35.113Z,6.20
2023-02-01T16:39:03.953Z,6.85
2023-02-01T16:41:30.892Z,9.25
2023-02-01T16:43:57.764Z,6.93
2023-02-01T16:46:27.638Z,5.47
2023-02-01T16:48:58.407Z,6.47
2023-02-01T16:51:27.836Z,2.97
2023-02-01T16:53:55.190Z,6.55
2023-02-01T16:56:32.533Z,3.85
2023-02-01T16:58:59.551Z,5.88
2023-02-01T17:01:26.895Z,6.85
2023-02-01T17:03:53.908Z,7.47
2023-02-01T17:06:24.724Z,7.55
2023-02-01T17:08:54.548Z,7.38
2023-02-01T17:11:21.308Z,6.35
2023-02-01T17:13:48.388Z,6.93
2023-02-01T17:16:32.440Z,5.00
2023-02-01T17:19:04.468Z,9.98
2023-02-01T17:21:43.688Z,16.48
2023-02-01T17:24:15.641Z,11.30
2023-02-01T17:26:43.529Z,7.00
2023-02-01T17:29:10.856Z,12.15
2023-02-01T17:31:44.208Z,10.32
2023-02-01T17:34:12.765Z,10.88
2023-02-01T17:36:42.593Z,12.65
2023-02-01T17:39:10.212Z,10.32
2023-02-01T17:41:37.906Z,8.23
2023-02-01T17:44:05.258Z,5.82
2023-02-01T17:46:32.496Z,25.30
2023-02-01T17:48:59.496Z,20.45
2023-02-01T17:51:28.211Z,18.95
2023-02-01T17:53:55.073Z,10.70
2023-02-01T17:56:24.832Z,13.63
2023-02-01T17:58:51.809Z,29.92
2023-02-01T18:01:24.210Z,20.83
2023-02-01T18:03:52.007Z,9.90
2023-02-01T18:06:23.937Z,9.82
2023-02-01T18:08:51.187Z,10.57
2023-02-01T18:11:20.534Z,7.88
2023-02-01T18:13:48.516Z,10.13
2023-02-01T18:16:28.208Z,9.15
2023-02-01T18:18:55.183Z,5.43
2023-02-01T18:21:23.519Z,12.52
2023-02-01T18:23:50.694Z,8.05
2023-02-01T18:26:18.970Z,9.35
2023-02-01T18:28:45.809Z,11.73
2023-02-01T18:31:32.609Z,6.95
2023-02-01T18:34:00.324Z,5.47
2023-02-01T18:36:30.719Z,14.10
2023-02-01T18:38:57.897Z,7.30
2023-02-01T18:41:26.004Z,9.77
2023-02-01T18:43:53.172Z,5.47
2023-02-01T18:46:22.003Z,8.38
2023-02-01T18:48:48.827Z,5.00
2023-02-01T18:51:20.365Z,7.25
2023-02-01T18:53:48.499Z,8.40
2023-02-01T18:56:19.900Z,7.75
2023-02-01T19:01:21.217Z,6.93
2023-02-01T19:03:51.900Z,3.75
2023-02-01T19:06:21.868Z,4.97
2023-02-01T19:08:48.806Z,6.85
2023-02-01T19:11:15.489Z,11.77
2023-02-01T19:13:42.389Z,8.43
2023-02-01T19:16:11.613Z,4.85
2023-02-01T19:18:39.180Z,6.75
2023-02-01T19:21:11.431Z,4.18
2023-02-01T19:23:42.355Z,3.78
2023-02-01T19:26:13.577Z,4.65
2023-02-01T19:28:40.861Z,7.00
2023-02-01T19:31:09.021Z,7.85
2023-02-01T19:33:36.457Z,4.03
2023-02-01T19:36:06.014Z,7.15
2023-02-01T19:38:33.612Z,6.90
2023-02-01T19:41:00.464Z,12.30
2023-02-01T19:43:28.610Z,7.53
2023-02-01T19:45:56.048Z,5.00
2023-02-01T19:48:23.339Z,8.30
2023-02-01T19:50:50.175Z,7.65
2023-02-01T19:53:16.906Z,5.90
2023-02-01T19:55:47.271Z,3.97
2023-02-01T19:58:14.612Z,2.95
2023-02-01T20:00:40.945Z,3.47
2023-02-01T20:03:08.307Z,3.83
2023-02-01T20:05:35.044Z,3.78
2023-02-01T20:08:02.160Z,7.68
2023-02-01T20:10:29.636Z,4.05
2023-02-01T20:12:56.332Z,4.53
2023-02-01T20:15:26.917Z,3.50
2023-02-01T20:17:53.942Z,1.48
2023-02-01T20:20:20.686Z,2.70
2023-02-01T20:22:47.532Z,3.72
2023-02-01T20:25:14.264Z,3.95
2023-02-01T20:27:41.874Z,2.35
2023-02-01T20:30:09.738Z,8.15
2023-02-01T20:32:37.987Z,2.67
2023-02-01T20:35:05.082Z,6.03
2023-02-01T20:37:31.942Z,2.88
2023-02-01T20:39:58.889Z,1.83
2023-02-01T20:42:25.888Z,2.38
2023-02-01T20:44:52.730Z,2.17
2023-02-01T20:47:19.560Z,1.85
2023-02-01T20:49:46.445Z,1.23
2023-02-01T20:52:13.404Z,2.20
2023-02-01T20:54:40.310Z,2.00
2023-02-01T20:57:07.444Z,3.13
2023-02-01T20:59:34.350Z,4.25
2023-02-01T21:02:01.527Z,2.47
2023-02-01T21:04:29.558Z,1.13
2023-02-01T21:06:58.211Z,0.77
2023-02-01T21:09:26.040Z,0.90
2023-02-01T21:11:53.487Z,0.70
2023-02-01T21:14:21.064Z,0.75
2023-02-01T21:16:48.685Z,0.93
2023-02-01T21:19:16.966Z,2.40
2023-02-01T21:21:43.997Z,4.28
2023-02-01T21:24:10.955Z,1.35
2023-02-01T21:26:43.812Z,0.50
2023-02-01T21:29:14.369Z,3.50
2023-02-01T21:31:42.644Z,0.57
2023-02-01T21:34:10.012Z,2.28
2023-02-01T21:36:37.063Z,0.80
2023-02-01T21:39:06.351Z,2.78
2023-02-01T21:41:53.027Z,0.85
2023-02-01T21:44:20.372Z,1.38
2023-02-01T21:46:47.464Z,2.42
2023-02-01T21:49:14.640Z,0.93
2023-02-01T21:51:42.667Z,2.10
2023-02-01T21:54:11.211Z,0.65
2023-02-01T21:56:38.735Z,1.23
2023-02-01T21:59:05.725Z,0.88
2023-02-01T22:01:34.032Z,0.75
2023-02-01T22:04:01.059Z,1.23
2023-02-01T22:06:30.677Z,1.50
2023-02-01T22:08:58.474Z,0.98
2023-02-01T22:11:26.115Z,0.50
2023-02-01T22:13:53.438Z,1.48
2023-02-01T22:16:21.762Z,2.85
2023-02-01T22:18:50.360Z,1.17
2023-02-01T22:21:18.202Z,0.30
2023-02-01T22:23:45.574Z,0.40
2023-02-01T22:26:14.440Z,0.70
2023-02-01T22:28:41.569Z,1.38
2023-02-01T22:31:10.145Z,0.82
2023-02-01T22:33:37.865Z,1.95
2023-02-01T22:36:06.048Z,2.15
2023-02-01T22:38:34.631Z,0.95
2023-02-01T22:41:06.101Z,0.95
2023-02-01T22:43:34.920Z,0.85
2023-02-01T22:46:05.828Z,0.55
2023-02-01T22:48:36.850Z,1.73
2023-02-01T22:51:04.882Z,2.17
2023-02-01T22:53:32.585Z,0.40
2023-02-01T22:56:07.390Z,1.15
2023-02-01T22:58:37.334Z,0.70
2023-02-01T23:01:16.589Z,1.17
2023-02-01T23:03:43.431Z,1.52
2023-02-01T23:06:10.452Z,1.02
2023-02-01T23:08:39.607Z,0.63
2023-02-01T23:11:09.477Z,1.77
2023-02-01T23:13:37.446Z,0.65
2023-02-01T23:16:09.859Z,0.88
2023-02-01T23:18:37.161Z,0.38
2023-02-01T23:21:15.829Z,0.40
2023-02-01T23:23:48.414Z,0.50
2023-02-01T23:26:15.755Z,0.55
2023-02-01T23:28:43.165Z,2.03
2023-02-01T23:31:12.597Z,0.50
2023-02-01T23:33:40.455Z,0.50
2023-02-01T23:36:11.787Z,0.57
2023-02-01T23:41:07.380Z,4.47
2023-02-01T23:43:53.159Z,0.70
2023-02-01T23:46:20.508Z,0.50
2023-02-01T23:48:48.972Z,1.45
2023-02-01T23:51:16.689Z,0.50
2023-02-01T23:53:44.899Z,0.55
2023-02-01T23:56:33.566Z,0.98
2023-02-01T23:59:06.256Z,0.68
